Hovedside
METAR-TAF:

METAR-TAF

Lufthavner :

Stockholm, Sverige

Bromma lufthavn

breddegrad: 59-21N, lengdegrad: 017-57E, høyde over havet: 14 m

Gjeldene værobservasjon

Denne rapporten ble laget for 17 minutter siden, klokken 04:20 UTC
Vind 7 kt fra Sør
Temperatur 1°C
Luftfuktighet 86%
Trykk 992 hPa
Sikt 10 km eller mer
ingen skyer under 1500 m og ingen bygeskyer

METAR: ESSB 250420Z 18007KT CAVOK 01/M01 Q0992

Tid: 06:37 (04:37 UTC)

Varsel

Denne rapporten ble laget for 1 time og 7 minutter siden, klokken 03:30 UTC
Varsel gyldig fra 25. klokken 04 UTC til 25. klokken 12 UTC
Vind 7 kt fra Sør
Sikt 10 km eller mer
ingen skyer under 1500 m og ingen bygeskyer

TAF: ESSB 250330Z 2504/2512 19007KT CAVOK

Værobservasjoner og værvarsel for over 4000 flyplasser (METAR- og TAF-rapporter).

Tilgjengelige stasjoner er representert av de røde og gule prikkene på kartet.

Hold musepekeren over prikken for å se navnet på stasjonen.

Klikk så for å se værobservasjoner og -varsler.

For å forandre kartet kan du klikke på den grønne knappen med svart kryss for å zoome inn, på den grønne knappen med strek for å zoome ut, eller på de grønne pilene for å se tilstøtende kart.


METAR-TAF: